createdAt,value
2019-04-20T00:00:54.674Z,8.40
2019-04-20T00:03:23.717Z,8.40
2019-04-20T00:05:50.943Z,8.40
2019-04-20T00:08:23.426Z,8.30
2019-04-20T00:10:56.961Z,8.30
2019-04-20T00:13:28.577Z,8.30
2019-04-20T00:15:47.102Z,8.30
2019-04-20T00:18:15.106Z,8.30
2019-04-20T00:20:52.516Z,8.20
2019-04-20T00:23:43.862Z,8.20
2019-04-20T00:26:40.098Z,8.10
2019-04-20T00:29:07.491Z,8.10
2019-04-20T00:31:39.170Z,8.00
2019-04-20T00:33:59.147Z,8.00
2019-04-20T00:36:18.107Z,8.00
2019-04-20T00:38:51.575Z,8.00
2019-04-20T00:41:17.284Z,8.00
2019-04-20T00:43:45.489Z,7.90
2019-04-20T00:46:23.069Z,7.80
2019-04-20T00:48:51.867Z,7.80
2019-04-20T00:53:44.908Z,7.70
2019-04-20T00:56:10.103Z,7.70
2019-04-20T00:58:52.326Z,7.70
2019-04-20T01:01:24.904Z,7.60
2019-04-20T01:03:52.279Z,7.60
2019-04-20T01:06:42.155Z,7.50
2019-04-20T01:08:57.189Z,7.60
2019-04-20T01:11:31.793Z,7.50
2019-04-20T01:14:00.140Z,7.40
2019-04-20T01:16:33.562Z,7.30
2019-04-20T01:18:52.207Z,7.30
2019-04-20T01:21:23.596Z,7.20
2019-04-20T01:23:54.625Z,7.10
2019-04-20T01:26:20.997Z,7.20
2019-04-20T01:29:03.947Z,7.30
2019-04-20T01:31:27.152Z,7.20
2019-04-20T01:33:55.023Z,7.20
2019-04-20T01:36:37.102Z,7.10
2019-04-20T01:38:58.942Z,7.00
2019-04-20T01:41:14.103Z,7.10
2019-04-20T01:43:41.599Z,7.00
2019-04-20T01:46:14.812Z,7.00
2019-04-20T01:48:41.206Z,7.10
2019-04-20T01:51:16.477Z,7.00
2019-04-20T01:54:16.396Z,7.10
2019-04-20T01:56:43.455Z,7.30
2019-04-20T01:59:32.028Z,7.30
2019-04-20T02:02:14.299Z,7.30
2019-04-20T02:04:45.929Z,7.00
2019-04-20T02:07:12.189Z,6.90
2019-04-20T02:09:48.511Z,6.70
2019-04-20T02:12:16.580Z,6.60
2019-04-20T02:14:45.353Z,6.50
2019-04-20T02:17:16.735Z,6.50
2019-04-20T02:19:57.220Z,6.50
2019-04-20T02:22:18.304Z,6.60
2019-04-20T02:24:36.975Z,6.60
2019-04-20T02:27:06.110Z,6.60
2019-04-20T02:29:59.187Z,6.70
2019-04-20T02:32:29.310Z,6.80
2019-04-20T02:38:21.824Z,6.50
2019-04-20T02:40:54.498Z,6.50
2019-04-20T02:43:15.513Z,6.40
2019-04-20T02:48:15.895Z,6.30
2019-04-20T02:50:44.076Z,6.20
2019-04-20T02:53:23.584Z,6.10
2019-04-20T02:55:52.878Z,6.10
2019-04-20T02:58:07.332Z,6.10
2019-04-20T03:00:35.538Z,6.10
2019-04-20T03:02:53.314Z,6.10
2019-04-20T03:05:20.419Z,6.10
2019-04-20T03:07:58.252Z,6.20
2019-04-20T03:10:34.284Z,6.40
2019-04-20T03:12:59.368Z,6.30
2019-04-20T03:15:29.540Z,6.10
2019-04-20T03:18:00.115Z,6.20
2019-04-20T03:20:31.652Z,6.20
2019-04-20T03:23:17.656Z,6.30
2019-04-20T03:25:45.489Z,6.40
2019-04-20T03:28:10.320Z,6.40
2019-04-20T03:33:35.080Z,6.30
2019-04-20T03:35:51.509Z,6.10
2019-04-20T03:38:14.484Z,6.10
2019-04-20T03:40:37.302Z,5.90
2019-04-20T03:42:52.728Z,5.90
2019-04-20T03:45:23.153Z,5.90
2019-04-20T03:48:02.249Z,5.80
2019-04-20T03:50:45.102Z,5.90
2019-04-20T03:53:17.246Z,6.10
2019-04-20T03:56:02.287Z,6.20
2019-04-20T03:58:51.970Z,6.20
2019-04-20T04:02:09.396Z,6.30
2019-04-20T04:04:25.272Z,6.30
2019-04-20T04:06:41.642Z,6.30
2019-04-20T04:09:12.240Z,6.00
2019-04-20T04:11:46.101Z,5.80
2019-04-20T04:14:00.799Z,5.70
2019-04-20T04:16:38.380Z,5.60
2019-04-20T04:19:08.961Z,5.70
2019-04-20T04:21:40.794Z,5.90
2019-04-20T04:24:10.739Z,6.00
2019-04-20T04:26:39.080Z,5.90
2019-04-20T04:29:19.219Z,5.80
2019-04-20T04:31:45.503Z,5.60
2019-04-20T04:34:10.894Z,5.50
2019-04-20T04:36:40.472Z,5.50
2019-04-20T04:39:17.792Z,5.60
2019-04-20T04:41:36.357Z,5.70
2019-04-20T04:44:03.074Z,5.50
2019-04-20T04:46:18.647Z,5.60
2019-04-20T04:48:49.419Z,5.50
2019-04-20T04:51:22.171Z,5.50
2019-04-20T04:53:54.175Z,5.60
2019-04-20T04:56:18.375Z,5.60
2019-04-20T04:58:42.674Z,5.60
2019-04-20T05:01:16.735Z,5.60
2019-04-20T05:04:05.260Z,5.90
2019-04-20T05:06:26.541Z,6.00
2019-04-20T05:08:48.954Z,6.10
2019-04-20T05:11:11.456Z,6.10
2019-04-20T05:13:45.935Z,6.10
2019-04-20T05:16:33.875Z,6.10
2019-04-20T05:19:13.434Z,6.20
2019-04-20T05:21:32.673Z,6.30
2019-04-20T05:24:09.956Z,6.40
2019-04-20T05:29:30.065Z,6.50
2019-04-20T05:32:03.505Z,6.70
2019-04-20T05:34:45.299Z,7.30
2019-04-20T05:37:25.731Z,7.80
2019-04-20T05:39:47.458Z,8.20
2019-04-20T05:42:09.303Z,8.50
2019-04-20T05:44:46.049Z,8.70
2019-04-20T05:47:13.644Z,8.80
2019-04-20T05:49:41.950Z,8.60
2019-04-20T05:52:25.395Z,8.50
2019-04-20T05:54:47.315Z,8.60
2019-04-20T05:57:14.977Z,8.80
2019-04-20T05:59:45.300Z,9.00
2019-04-20T06:02:11.213Z,9.20
2019-04-20T06:04:57.324Z,9.40
2019-04-20T06:07:09.276Z,9.50
2019-04-20T06:09:42.891Z,9.70
2019-04-20T06:12:17.938Z,9.90
2019-04-20T06:14:48.325Z,10.30
2019-04-20T06:17:31.445Z,10.30
2019-04-20T06:20:02.267Z,10.40
2019-04-20T06:22:37.917Z,10.80
2019-04-20T06:26:00.715Z,11.00
2019-04-20T06:28:06.551Z,11.40
2019-04-20T06:30:34.836Z,12.00
2019-04-20T06:34:00.286Z,11.90
2019-04-20T06:38:57.419Z,11.90
2019-04-20T06:41:23.020Z,12.00
2019-04-20T06:43:55.743Z,12.10
2019-04-20T06:46:20.230Z,12.30
2019-04-20T06:48:45.899Z,12.70
2019-04-20T06:51:18.832Z,13.70
2019-04-20T06:54:07.306Z,14.60
2019-04-20T06:56:49.875Z,14.60
2019-04-20T06:59:19.608Z,15.30
2019-04-20T07:01:48.653Z,16.40
2019-04-20T07:04:36.507Z,15.80
2019-04-20T07:06:50.662Z,15.70
2019-04-20T07:09:20.189Z,16.20
2019-04-20T07:11:42.609Z,16.50
2019-04-20T07:13:58.757Z,17.20
2019-04-20T07:17:07.301Z,17.90
2019-04-20T07:19:49.858Z,17.30
2019-04-20T07:22:33.761Z,17.20
2019-04-20T07:25:01.378Z,17.40
2019-04-20T07:27:30.800Z,17.30
2019-04-20T07:30:03.825Z,17.20
2019-04-20T07:32:38.764Z,17.50
2019-04-20T07:35:03.585Z,17.80
2019-04-20T07:40:05.993Z,18.60
2019-04-20T07:42:52.638Z,19.30
2019-04-20T07:45:07.619Z,19.10
2019-04-20T07:47:44.086Z,19.30
2019-04-20T07:50:01.127Z,19.40
2019-04-20T07:52:12.220Z,19.70
2019-04-20T07:55:18.602Z,19.90
2019-04-20T07:57:25.961Z,19.80
2019-04-20T07:59:58.909Z,20.00
2019-04-20T08:02:58.654Z,20.20
2019-04-20T08:05:28.411Z,20.40
2019-04-20T08:07:53.404Z,20.70
2019-04-20T08:10:18.978Z,20.90
2019-04-20T08:13:24.704Z,21.10
2019-04-20T08:15:49.219Z,21.40
2019-04-20T08:18:21.276Z,21.90
2019-04-20T08:20:45.064Z,22.30
2019-04-20T08:23:17.495Z,22.40
2019-04-20T08:25:38.848Z,22.50
2019-04-20T08:28:31.779Z,22.90
2019-04-20T08:31:24.544Z,22.70
2019-04-20T08:34:15.287Z,21.50
2019-04-20T08:36:33.239Z,21.30
2019-04-20T08:41:27.170Z,21.40
2019-04-20T08:44:08.201Z,21.50
2019-04-20T08:46:38.656Z,21.60
2019-04-20T08:49:03.410Z,21.40
2019-04-20T08:51:39.259Z,21.50
2019-04-20T08:53:58.926Z,21.80
2019-04-20T08:56:21.596Z,21.60
2019-04-20T08:58:39.075Z,21.60
2019-04-20T09:01:09.094Z,21.20
2019-04-20T09:03:48.749Z,20.90
2019-04-20T09:06:15.265Z,21.10
2019-04-20T09:08:49.292Z,21.10
2019-04-20T09:11:23.227Z,21.10
2019-04-20T09:13:41.236Z,21.40
2019-04-20T09:16:04.202Z,21.60
2019-04-20T09:18:47.752Z,21.80
2019-04-20T09:21:19.161Z,21.60
2019-04-20T09:23:52.388Z,21.90
2019-04-20T09:26:20.785Z,22.20
2019-04-20T09:28:54.332Z,22.40
2019-04-20T09:31:31.026Z,22.80
2019-04-20T09:34:06.275Z,22.70
2019-04-20T09:36:56.468Z,22.80
2019-04-20T09:39:30.683Z,23.20
2019-04-20T09:42:08.588Z,23.20
2019-04-20T09:44:40.937Z,23.00
2019-04-20T09:47:07.227Z,22.90
2019-04-20T09:49:47.245Z,22.70
2019-04-20T09:52:21.882Z,22.50
2019-04-20T09:54:53.023Z,22.90
2019-04-20T09:57:28.334Z,23.00
2019-04-20T09:59:53.714Z,23.00
2019-04-20T10:02:11.228Z,22.90
2019-04-20T10:04:33.455Z,22.90
2019-04-20T10:07:07.711Z,23.10
2019-04-20T10:09:37.004Z,23.20
2019-04-20T10:11:59.937Z,23.00
2019-04-20T10:14:27.230Z,23.40
2019-04-20T10:16:55.787Z,23.30
2019-04-20T10:19:30.138Z,23.80
2019-04-20T10:21:54.775Z,23.10
2019-04-20T10:24:22.117Z,23.10
2019-04-20T10:26:50.456Z,23.70
2019-04-20T10:29:17.885Z,24.30
2019-04-20T10:31:51.474Z,24.10
2019-04-20T10:34:15.800Z,24.30
2019-04-20T10:37:03.841Z,24.10
2019-04-20T10:39:52.258Z,24.10
2019-04-20T10:42:20.454Z,24.40
2019-04-20T10:44:48.280Z,24.40
2019-04-20T10:47:16.915Z,24.30
2019-04-20T10:49:45.019Z,24.60
2019-04-20T10:52:13.669Z,24.80
2019-04-20T10:54:42.679Z,25.20
2019-04-20T10:57:11.253Z,25.40
2019-04-20T10:59:39.429Z,25.70
2019-04-20T11:02:07.914Z,25.90
2019-04-20T11:04:36.722Z,26.50
2019-04-20T11:07:04.817Z,27.10
2019-04-20T11:09:34.491Z,27.80
2019-04-20T11:12:02.267Z,28.60
2019-04-20T11:14:33.224Z,27.80
2019-04-20T11:17:00.239Z,28.20
2019-04-20T11:19:27.676Z,28.30
2019-04-20T11:21:56.504Z,27.40
2019-04-20T11:24:25.941Z,28.00
2019-04-20T11:26:54.111Z,28.50
2019-04-20T11:29:22.200Z,28.70
2019-04-20T11:31:53.062Z,28.80
2019-04-20T11:34:23.523Z,27.50
2019-04-20T11:36:48.904Z,27.20
2019-04-20T11:39:16.828Z,28.10
2019-04-20T11:41:45.710Z,28.20
2019-04-20T11:44:13.771Z,28.00
2019-04-20T11:46:41.144Z,27.50
2019-04-20T11:49:09.816Z,27.30
2019-04-20T11:51:37.389Z,28.00
2019-04-20T11:54:06.087Z,28.20
2019-04-20T11:56:38.869Z,28.10
2019-04-20T11:59:03.599Z,28.60
2019-04-20T12:02:03.916Z,27.80
2019-04-20T12:04:51.878Z,28.30
2019-04-20T12:07:15.015Z,28.20
2019-04-20T12:09:43.731Z,28.40
2019-04-20T12:12:24.417Z,28.80
2019-04-20T12:14:40.960Z,29.40
2019-04-20T12:17:08.757Z,29.00
2019-04-20T12:19:36.355Z,29.00
2019-04-20T12:22:05.597Z,28.50
2019-04-20T12:24:33.243Z,29.10
2019-04-20T12:27:00.778Z,29.20
2019-04-20T12:29:28.205Z,28.90
2019-04-20T12:31:59.135Z,28.90
2019-04-20T12:34:24.664Z,28.60
2019-04-20T12:36:53.206Z,29.10
2019-04-20T12:39:22.313Z,28.40
2019-04-20T12:41:55.212Z,28.50
2019-04-20T12:44:21.927Z,28.30
2019-04-20T12:46:50.123Z,28.50
2019-04-20T12:49:17.991Z,28.60
2019-04-20T12:51:52.628Z,28.30
2019-04-20T12:54:18.497Z,29.50
2019-04-20T12:56:46.566Z,28.80
2019-04-20T12:59:13.900Z,28.80
2019-04-20T13:01:41.505Z,29.00
2019-04-20T13:04:10.007Z,28.70
2019-04-20T13:06:39.054Z,28.60
2019-04-20T13:09:12.574Z,29.20
2019-04-20T13:12:04.444Z,28.90
2019-04-20T13:15:14.034Z,28.60
2019-04-20T13:17:42.231Z,29.00
2019-04-20T13:20:10.072Z,28.30
2019-04-20T13:22:41.072Z,28.00
2019-04-20T13:25:10.688Z,28.50
2019-04-20T13:27:38.894Z,27.80
2019-04-20T13:30:07.213Z,27.70
2019-04-20T13:32:35.726Z,28.20
2019-04-20T13:35:04.535Z,28.50
2019-04-20T13:37:32.412Z,27.90
2019-04-20T13:40:00.771Z,27.50
2019-04-20T13:42:31.237Z,27.20
2019-04-20T13:44:58.987Z,27.10
2019-04-20T13:47:28.179Z,26.40
2019-04-20T13:49:56.866Z,26.40
2019-04-20T13:52:24.774Z,26.30
2019-04-20T13:54:53.907Z,26.10
2019-04-20T13:57:28.159Z,25.70
2019-04-20T13:59:58.100Z,25.20
2019-04-20T14:02:54.721Z,24.70
2019-04-20T14:05:32.725Z,24.40
2019-04-20T14:08:07.350Z,24.30
2019-04-20T14:10:39.580Z,24.70
2019-04-20T14:13:11.850Z,24.20
2019-04-20T14:15:37.383Z,24.00
2019-04-20T14:18:06.941Z,23.60
2019-04-20T14:20:34.383Z,23.60
2019-04-20T14:23:03.134Z,23.50
2019-04-20T14:25:33.263Z,23.50
2019-04-20T14:28:00.745Z,23.60
2019-04-20T14:30:29.015Z,23.60
2019-04-20T14:32:57.226Z,23.60
2019-04-20T14:35:24.965Z,23.20
2019-04-20T14:37:52.321Z,23.30
2019-04-20T14:40:20.092Z,23.30
2019-04-20T14:42:51.629Z,23.20
2019-04-20T14:45:18.696Z,23.00
2019-04-20T14:47:47.730Z,23.00
2019-04-20T14:50:15.946Z,23.30
2019-04-20T14:52:43.823Z,23.10
2019-04-20T14:55:15.242Z,23.10
2019-04-20T14:57:41.503Z,23.10
2019-04-20T15:00:27.717Z,23.00
2019-04-20T15:02:59.494Z,23.10
2019-04-20T15:05:28.736Z,22.80
2019-04-20T15:07:58.559Z,22.90
2019-04-20T15:10:26.853Z,22.90
2019-04-20T15:12:59.266Z,23.00
2019-04-20T15:15:23.735Z,22.90
2019-04-20T15:18:05.790Z,22.90
2019-04-20T15:20:41.686Z,22.80
2019-04-20T15:23:21.569Z,22.90
2019-04-20T15:25:50.632Z,23.10
2019-04-20T15:28:20.620Z,23.00
2019-04-20T15:30:48.356Z,23.00
2019-04-20T15:33:16.943Z,23.00
2019-04-20T15:35:44.356Z,22.90
2019-04-20T15:38:13.101Z,22.50
2019-04-20T15:40:41.469Z,22.50
2019-04-20T15:43:15.382Z,22.60
2019-04-20T15:45:47.519Z,22.70
2019-04-20T15:48:19.914Z,22.60
2019-04-20T15:50:47.839Z,22.70
2019-04-20T15:53:15.799Z,22.70
2019-04-20T15:55:48.450Z,22.50
2019-04-20T15:58:18.467Z,22.50
2019-04-20T16:00:47.760Z,22.40
2019-04-20T16:03:29.641Z,22.40
2019-04-20T16:06:03.359Z,22.30
2019-04-20T16:08:36.718Z,22.30
2019-04-20T16:11:04.923Z,22.20
2019-04-20T16:13:38.045Z,22.10
2019-04-20T16:16:03.663Z,22.10
2019-04-20T16:18:32.809Z,22.10
2019-04-20T16:21:07.952Z,22.00
2019-04-20T16:23:40.807Z,22.00
2019-04-20T16:26:26.361Z,22.00
2019-04-20T16:28:55.938Z,22.00
2019-04-20T16:31:30.890Z,22.00
2019-04-20T16:33:58.984Z,21.90
2019-04-20T16:36:30.496Z,21.90
2019-04-20T16:38:59.439Z,21.90
2019-04-20T16:41:32.686Z,21.90
2019-04-20T16:44:00.955Z,21.90
2019-04-20T16:46:30.138Z,21.90
2019-04-20T16:49:01.183Z,21.90
2019-04-20T16:51:29.234Z,21.70
2019-04-20T16:53:57.031Z,21.70
2019-04-20T16:56:24.482Z,21.70
2019-04-20T16:58:54.673Z,21.70
2019-04-20T17:01:23.373Z,21.70
2019-04-20T17:04:01.070Z,21.50
2019-04-20T17:06:22.197Z,21.50
2019-04-20T17:08:51.196Z,21.50
2019-04-20T17:11:18.922Z,21.50
2019-04-20T17:13:50.085Z,21.40
2019-04-20T17:16:15.629Z,21.40
2019-04-20T17:18:47.894Z,21.40
2019-04-20T17:21:21.756Z,21.30
2019-04-20T17:23:45.664Z,21.30
2019-04-20T17:26:18.852Z,21.10
2019-04-20T17:28:57.635Z,21.20
2019-04-20T17:31:33.539Z,21.10
2019-04-20T17:34:31.504Z,20.90
2019-04-20T17:36:42.210Z,20.80
2019-04-20T17:39:12.550Z,20.80
2019-04-20T17:41:57.666Z,20.70
2019-04-20T17:44:26.534Z,20.60
2019-04-20T17:46:50.373Z,20.40
2019-04-20T17:49:19.458Z,20.40
2019-04-20T17:51:59.193Z,20.30
2019-04-20T17:54:31.428Z,20.20
2019-04-20T17:57:00.275Z,20.20
2019-04-20T17:59:28.437Z,20.00
2019-04-20T18:02:24.977Z,19.90
2019-04-20T18:05:22.013Z,19.80
2019-04-20T18:07:41.451Z,19.70
2019-04-20T18:10:14.288Z,19.50
2019-04-20T18:12:26.745Z,19.50
2019-04-20T18:15:08.183Z,19.50
2019-04-20T18:17:54.712Z,19.40
2019-04-20T18:20:14.787Z,19.30
2019-04-20T18:22:45.612Z,19.20
2019-04-20T18:25:30.015Z,19.00
2019-04-20T18:27:58.749Z,18.80
2019-04-20T18:30:29.709Z,18.60
2019-04-20T18:32:45.228Z,18.60
2019-04-20T18:35:16.311Z,18.40
2019-04-20T18:37:52.568Z,18.20
2019-04-20T18:40:25.883Z,18.10
2019-04-20T18:42:45.776Z,18.00
2019-04-20T18:45:30.963Z,17.80
2019-04-20T18:48:04.347Z,17.50
2019-04-20T18:50:22.392Z,17.50
2019-04-20T18:52:42.209Z,17.30
2019-04-20T18:55:15.930Z,17.10
2019-04-20T18:57:39.755Z,16.90
2019-04-20T19:00:12.110Z,16.50
2019-04-20T19:02:40.963Z,16.40
2019-04-20T19:05:08.658Z,16.40
2019-04-20T19:07:42.469Z,16.20
2019-04-20T19:10:14.826Z,15.90
2019-04-20T19:12:46.123Z,15.90
2019-04-20T19:15:44.246Z,16.00
2019-04-20T19:18:18.362Z,15.70
2019-04-20T19:20:43.186Z,15.70
2019-04-20T19:23:10.639Z,15.80
2019-04-20T19:25:40.971Z,15.90
2019-04-20T19:28:08.784Z,15.70
2019-04-20T19:30:45.985Z,15.80
2019-04-20T19:33:22.722Z,15.80
2019-04-20T19:35:45.438Z,15.60
2019-04-20T19:38:13.468Z,15.80
2019-04-20T19:40:47.767Z,15.50
2019-04-20T19:43:15.557Z,15.00
2019-04-20T19:45:56.530Z,15.10
2019-04-20T19:48:21.785Z,15.00
2019-04-20T19:50:54.662Z,14.50
2019-04-20T19:53:24.658Z,14.80
2019-04-20T19:55:45.260Z,14.60
2019-04-20T19:58:11.497Z,14.60
2019-04-20T20:00:43.253Z,14.80
2019-04-20T20:03:11.975Z,14.90
2019-04-20T20:05:45.207Z,14.40
2019-04-20T20:08:14.918Z,14.40
2019-04-20T20:10:41.204Z,14.70
2019-04-20T20:13:08.250Z,14.90
2019-04-20T20:15:39.571Z,14.50
2019-04-20T20:18:25.250Z,14.80
2019-04-20T20:20:55.497Z,14.10
2019-04-20T20:23:05.693Z,14.40
2019-04-20T20:25:38.546Z,14.60
2019-04-20T20:28:17.185Z,14.80
2019-04-20T20:30:42.181Z,14.70
2019-04-20T20:33:17.097Z,15.20
2019-04-20T20:35:41.301Z,15.30
2019-04-20T20:38:03.798Z,14.80
2019-04-20T20:40:34.636Z,14.10
2019-04-20T20:43:11.102Z,14.20
2019-04-20T20:45:33.653Z,14.10
2019-04-20T20:48:18.470Z,14.00
2019-04-20T20:50:54.617Z,14.30
2019-04-20T20:53:05.048Z,14.00
2019-04-20T20:55:35.635Z,14.10
2019-04-20T20:58:01.937Z,14.70
2019-04-20T21:00:34.384Z,15.10
2019-04-20T21:03:01.829Z,15.60
2019-04-20T21:05:23.539Z,16.00
2019-04-20T21:07:51.445Z,14.70
2019-04-20T21:10:25.896Z,13.50
2019-04-20T21:12:53.782Z,12.80
2019-04-20T21:15:22.470Z,12.40
2019-04-20T21:18:08.386Z,12.10
2019-04-20T21:20:39.503Z,12.00
2019-04-20T21:23:03.602Z,11.90
2019-04-20T21:25:26.344Z,11.70
2019-04-20T21:27:52.912Z,11.70
2019-04-20T21:30:30.459Z,11.60
2019-04-20T21:32:55.033Z,11.50
2019-04-20T21:35:21.741Z,11.30
2019-04-20T21:37:58.239Z,11.20
2019-04-20T21:40:27.857Z,11.20
2019-04-20T21:42:52.497Z,11.30
2019-04-20T21:45:24.808Z,11.20
2019-04-20T21:47:47.014Z,11.20
2019-04-20T21:50:29.994Z,11.20
2019-04-20T21:52:50.619Z,11.10
2019-04-20T21:55:14.434Z,10.90
2019-04-20T21:57:46.178Z,10.80
2019-04-20T22:00:24.983Z,10.90
2019-04-20T22:02:54.233Z,11.00
2019-04-20T22:05:13.552Z,11.00
2019-04-20T22:07:41.299Z,11.00
2019-04-20T22:10:11.652Z,11.00
2019-04-20T22:12:46.905Z,10.90
2019-04-20T22:15:17.328Z,10.60
2019-04-20T22:17:38.049Z,10.40
2019-04-20T22:20:17.911Z,10.30
2019-04-20T22:22:52.289Z,10.20
2019-04-20T22:25:26.309Z,10.30
2019-04-20T22:27:36.692Z,10.50
2019-04-20T22:30:06.095Z,10.60
2019-04-20T22:32:37.569Z,10.40
2019-04-20T22:35:07.248Z,10.40
2019-04-20T22:37:42.129Z,10.30
2019-04-20T22:40:12.723Z,10.40
2019-04-20T22:42:47.501Z,10.20
2019-04-20T22:45:13.339Z,10.20
2019-04-20T22:47:39.177Z,10.10
2019-04-20T22:50:32.080Z,10.10
2019-04-20T22:52:44.485Z,10.10
2019-04-20T22:55:27.043Z,10.20
2019-04-20T22:57:48.409Z,10.10
2019-04-20T23:00:12.933Z,10.00
2019-04-20T23:02:37.081Z,10.10
2019-04-20T23:05:04.815Z,10.10
2019-04-20T23:07:32.760Z,10.20
2019-04-20T23:10:02.005Z,10.30
2019-04-20T23:12:30.458Z,10.40
2019-04-20T23:14:58.743Z,10.40
2019-04-20T23:17:33.567Z,10.30
2019-04-20T23:19:59.227Z,10.30
2019-04-20T23:22:33.628Z,10.30
2019-04-20T23:24:53.414Z,10.30
2019-04-20T23:27:26.282Z,10.20
2019-04-20T23:29:51.179Z,10.10
2019-04-20T23:32:19.892Z,10.00
2019-04-20T23:34:50.055Z,9.90
2019-04-20T23:37:23.353Z,9.90
2019-04-20T23:39:49.181Z,10.00
2019-04-20T23:42:19.826Z,10.00
2019-04-20T23:44:57.671Z,10.20
2019-04-20T23:47:38.588Z,10.20
2019-04-20T23:50:22.138Z,10.40
2019-04-20T23:52:59.335Z,10.30
2019-04-20T23:55:11.502Z,10.30
2019-04-20T23:57:37.868Z,10.20
